地図

経路データ

SID SEASON NUMBER BASIN SUBBASIN NAME ISO_TIME NATURE LAT LON WMO_WIND WMO_PRES WMO_AGENCY TRACK_TYPE DIST2LAND LANDFALL IFLAG USA_AGENCY USA_ATCF_ID USA_LAT USA_LON USA_RECORD USA_STATUS USA_WIND USA_PRES USA_SSHS USA_R34_NE USA_R34_SE USA_R34_SW USA_R34_NW USA_R50_NE USA_R50_SE USA_R50_SW USA_R50_NW USA_R64_NE USA_R64_SE USA_R64_SW USA_R64_NW USA_POCI USA_ROCI USA_RMW USA_EYE TOKYO_LAT TOKYO_LON TOKYO_GRADE TOKYO_WIND TOKYO_PRES TOKYO_R50_DIR TOKYO_R50_LONG TOKYO_R50_SHORT TOKYO_R30_DIR TOKYO_R30_LONG TOKYO_R30_SHORT TOKYO_LAND CMA_LAT CMA_LON CMA_CAT CMA_WIND CMA_PRES HKO_LAT HKO_LON HKO_CAT HKO_WIND HKO_PRES NEWDELHI_LAT NEWDELHI_LON NEWDELHI_GRADE NEWDELHI_WIND NEWDELHI_PRES NEWDELHI_CI NEWDELHI_DP NEWDELHI_POCI REUNION_LAT REUNION_LON REUNION_TYPE REUNION_WIND REUNION_PRES REUNION_TNUM REUNION_CI REUNION_RMW REUNION_R34_NE REUNION_R34_SE REUNION_R34_SW REUNION_R34_NW REUNION_R50_NE REUNION_R50_SE REUNION_R50_SW REUNION_R50_NW REUNION_R64_NE REUNION_R64_SE REUNION_R64_SW REUNION_R64_NW BOM_LAT BOM_LON BOM_TYPE BOM_WIND BOM_PRES BOM_TNUM BOM_CI BOM_RMW BOM_R34_NE BOM_R34_SE BOM_R34_SW BOM_R34_NW BOM_R50_NE BOM_R50_SE BOM_R50_SW BOM_R50_NW BOM_R64_NE BOM_R64_SE BOM_R64_SW BOM_R64_NW BOM_ROCI BOM_POCI BOM_EYE BOM_POS_METHOD BOM_PRES_METHOD NADI_LAT NADI_LON NADI_CAT NADI_WIND NADI_PRES WELLINGTON_LAT WELLINGTON_LON WELLINGTON_WIND WELLINGTON_PRES DS824_LAT DS824_LON DS824_STAGE DS824_WIND DS824_PRES TD9636_LAT TD9636_LON TD9636_STAGE TD9636_WIND TD9636_PRES TD9635_LAT TD9635_LON TD9635_WIND TD9635_PRES TD9635_ROCI NEUMANN_LAT NEUMANN_LON NEUMANN_CLASS NEUMANN_WIND NEUMANN_PRES MLC_LAT MLC_LON MLC_CLASS MLC_WIND MLC_PRES USA_GUST BOM_GUST BOM_GUST_PER REUNION_GUST REUNION_GUST_PER USA_SEAHGT USA_SEARAD_NE USA_SEARAD_SE USA_SEARAD_SW USA_SEARAD_NW STORM_SPEED STORM_DIR
1964210N19314 1964 52 NA NA NOT_NAMED 1964-07-28 06:00:00 TS 19.1000 -46.0000 40 hurdat_atl main 1712 1660 O_____________ hurdat_atl AL021964 19.1000 -46.0000 TS 40 0 24 269
1964210N19314 1964 52 NA NA NOT_NAMED 1964-07-28 09:00:00 TS 19.0892 -47.2626 main 1656 1606 P_____________ AL021964 19.0892 -47.2626 TS 42 0 24 270
1964210N19314 1964 52 NA NA NOT_NAMED 1964-07-28 12:00:00 TS 19.1000 -48.5000 45 hurdat_atl main 1601 1550 O_____________ hurdat_atl AL021964 19.1000 -48.5000 TS 45 0 23 272
1964210N19314 1964 52 NA NA NOT_NAMED 1964-07-28 15:00:00 TS 19.1619 -49.6877 main 1541 1465 P_____________ AL021964 19.1619 -49.6877 TS 45 0 22 275
1964210N19314 1964 52 NA NA NOT_NAMED 1964-07-28 18:00:00 TS 19.3000 -50.8000 45 hurdat_atl main 1457 1394 O_____________ hurdat_atl AL021964 19.3000 -50.8000 TS 45 0 21 280
1964210N19314 1964 52 NA NA NOT_NAMED 1964-07-28 21:00:00 TS 19.5121 -51.8599 main 1386 1344 P_____________ AL021964 19.5121 -51.8599 TS 45 0 20 285
1964210N19314 1964 52 NA NA NOT_NAMED 1964-07-29 00:00:00 TS 19.8000 -52.8000 45 hurdat_atl main 1345 1282 O_____________ hurdat_atl AL021964 19.8000 -52.8000 TS 45 0 17 290
1964210N19314 1964 52 NA NA NOT_NAMED 1964-07-29 03:00:00 TS 20.1042 -53.5882 main 1273 1207 P_____________ AL021964 20.1042 -53.5882 TS 45 0 16 296
1964210N19314 1964 52 NA NA NOT_NAMED 1964-07-29 06:00:00 TS 20.5000 -54.3000 45 hurdat_atl main 1207 1146 O_____________ hurdat_atl AL021964 20.5000 -54.3000 TS 45 0 16 304
1964210N19314 1964 52 NA NA NOT_NAMED 1964-07-29 09:00:00 TS 21.0269 -55.0278 main 1146 1084 P_____________ AL021964 21.0269 -55.0278 TS 45 0 18 308
1964210N19314 1964 52 NA NA NOT_NAMED 1964-07-29 12:00:00 TS 21.6000 -55.8000 45 1006 hurdat_atl main 1084 1025 O_____________ hurdat_atl AL021964 21.6000 -55.8000 TS 45 1006 0 19 305
1964210N19314 1964 52 NA NA NOT_NAMED 1964-07-29 15:00:00 TS 22.1149 -56.6779 main 1016 960 P_____________ AL021964 22.1149 -56.6779 TS 45 1006 0 19 301
1964210N19314 1964 52 NA NA NOT_NAMED 1964-07-29 18:00:00 TS 22.6000 -57.6000 45 hurdat_atl main 956 899 I_____________ hurdat_atl AL021964 22.6000 -57.6000 TS 45 1007 0 20 298
1964210N19314 1964 52 NA NA NOT_NAMED 1964-07-29 21:00:00 TS 23.0278 -58.5605 main 891 859 P_____________ AL021964 23.0278 -58.5605 TS 42 1007 0 19 299
1964210N19314 1964 52 NA NA NOT_NAMED 1964-07-30 00:00:00 TS 23.5000 -59.4000 40 1008 hurdat_atl main 859 851 O_____________ hurdat_atl AL021964 23.5000 -59.4000 TS 40 1008 0 17 308
1964210N19314 1964 52 NA NA NOT_NAMED 1964-07-30 03:00:00 TS 24.0669 -59.9908 main 861 861 P_____________ AL021964 24.0669 -59.9908 TS 40 0 16 325
1964210N19314 1964 52 NA NA NOT_NAMED 1964-07-30 06:00:00 TS 24.8000 -60.4000 40 hurdat_atl main 894 894 O_____________ hurdat_atl AL021964 24.8000 -60.4000 TS 40 0 19 338
1964210N19314 1964 52 NA NA NOT_NAMED 1964-07-30 09:00:00 TS 25.7774 -60.7671 main 963 963 P_____________ AL021964 25.7774 -60.7671 TS 40 0 21 345
1964210N19314 1964 52 NA NA NOT_NAMED 1964-07-30 12:00:00 TS 26.8000 -61.0000 40 hurdat_atl main 1050 1050 O_____________ hurdat_atl AL021964 26.8000 -61.0000 TS 40 0 19 350
1964210N19314 1964 52 NA NA NOT_NAMED 1964-07-30 15:00:00 TS 27.6447 -61.1399 main 1126 1126 P_____________ AL021964 27.6447 -61.1399 TS 37 0 16 357
1964210N19314 1964 52 NA NA NOT_NAMED 1964-07-30 18:00:00 TS 28.4000 -61.1000 35 1012 hurdat_atl main 1207 1207 O_____________ hurdat_atl AL021964 28.4000 -61.1000 TS 35 1012 0 15 9
1964210N19314 1964 52 NA NA NOT_NAMED 1964-07-30 21:00:00 TS 29.1224 -60.8826 main 1287 1287 P_____________ AL021964 29.1224 -60.8826 TS 35 0 15 21
1964210N19314 1964 52 NA NA NOT_NAMED 1964-07-31 00:00:00 TS 29.8000 -60.5000 35 hurdat_atl main 1374 1374 O_____________ hurdat_atl AL021964 29.8000 -60.5000 TS 35 0 15 29
1964210N19314 1964 52 NA NA NOT_NAMED 1964-07-31 03:00:00 TS 30.4575 -60.0372 main 1465 1465 P_____________ AL021964 30.4575 -60.0372 TS 35 0 16 34
1964210N19314 1964 52 NA NA NOT_NAMED 1964-07-31 06:00:00 TS 31.1000 -59.5000 35 hurdat_atl main 1471 1424 O_____________ hurdat_atl AL021964 31.1000 -59.5000 TS 35 0 16 36
1964210N19314 1964 52 NA NA NOT_NAMED 1964-07-31 09:00:00 TS 31.7499 -58.9569 main 1424 1374 P_____________ AL021964 31.7499 -58.9569 TS 37 0 16 36
1964210N19314 1964 52 NA NA NOT_NAMED 1964-07-31 12:00:00 TS 32.4000 -58.4000 40 1012 hurdat_atl main 1374 1333 O_____________ hurdat_atl AL021964 32.4000 -58.4000 TS 40 1012 0 16 35
1964210N19314 1964 52 NA NA NOT_NAMED 1964-07-31 15:00:00 TS 33.0572 -57.8567 main 1323 1291 P_____________ AL021964 33.0572 -57.8567 TS 42 1010 0 16 35
1964210N19314 1964 52 NA NA NOT_NAMED 1964-07-31 18:00:00 TS 33.7000 -57.3000 45 1008 hurdat_atl main 1291 1258 O_____________ hurdat_atl AL021964 33.7000 -57.3000 TS 45 1008 0 16 37
1964210N19314 1964 52 NA NA NOT_NAMED 1964-07-31 21:00:00 TS 34.2920 -56.7283 main 1263 1221 P_____________ AL021964 34.2920 -56.7283 TS 47 0 16 40
1964210N19314 1964 52 NA NA NOT_NAMED 1964-08-01 00:00:00 TS 34.9000 -56.1000 50 hurdat_atl main 1221 1177 O_____________ hurdat_atl AL021964 34.9000 -56.1000 TS 50 0 17 41
1964210N19314 1964 52 NA NA NOT_NAMED 1964-08-01 03:00:00 TS 35.5852 -55.3575 main 1170 1129 P_____________ AL021964 35.5852 -55.3575 TS 55 0 19 41
1964210N19314 1964 52 NA NA NOT_NAMED 1964-08-01 06:00:00 TS 36.3000 -54.6000 60 hurdat_atl main 1129 1068 O_____________ hurdat_atl AL021964 36.3000 -54.6000 TS 60 0 18 39
1964210N19314 1964 52 NA NA NOT_NAMED 1964-08-01 09:00:00 TS 37.0066 -53.9482 main 1068 989 P_____________ AL021964 37.0066 -53.9482 TS 62 0 17 37
1964210N19314 1964 52 NA NA NOT_NAMED 1964-08-01 12:00:00 TS 37.7000 -53.3000 65 hurdat_atl main 989 923 O_____________ hurdat_atl AL021964 37.7000 -53.3000 HU 65 1 17 39
1964210N19314 1964 52 NA NA NOT_NAMED 1964-08-01 15:00:00 TS 38.3568 -52.5857 main 913 852 P_____________ AL021964 38.3568 -52.5857 HU 70 1 18 42
1964210N19314 1964 52 NA NA NOT_NAMED 1964-08-01 18:00:00 TS 39.0000 -51.8000 75 hurdat_atl main 852 798 O_____________ hurdat_atl AL021964 39.0000 -51.8000 HU 75 1 18 45
1964210N19314 1964 52 NA NA NOT_NAMED 1964-08-01 21:00:00 TS 39.6187 -50.9635 main 798 743 P_____________ AL021964 39.6187 -50.9635 HU 75 1 19 47
1964210N19314 1964 52 NA NA NOT_NAMED 1964-08-02 00:00:00 TS 40.3000 -50.0000 75 hurdat_atl main 746 707 O_____________ hurdat_atl AL021964 40.3000 -50.0000 HU 75 1 22 48
1964210N19314 1964 52 NA NA NOT_NAMED 1964-08-02 03:00:00 TS 41.0822 -48.8569 main 701 679 P_____________ AL021964 41.0822 -48.8569 HU 72 1 25 47
1964210N19314 1964 52 NA NA NOT_NAMED 1964-08-02 06:00:00 ET 42.0000 -47.6000 70 hurdat_atl main 676 667 O_____________ hurdat_atl AL021964 42.0000 -47.6000 EX 70 -4 27 44
1964210N19314 1964 52 NA NA NOT_NAMED 1964-08-02 09:00:00 ET 43.0170 -46.3032 main 673 670 P_____________ AL021964 43.0170 -46.3032 EX 65 -4 29 41
1964210N19314 1964 52 NA NA NOT_NAMED 1964-08-02 12:00:00 ET 44.2000 -45.0000 60 hurdat_atl main 684 684 O_____________ hurdat_atl AL021964 44.2000 -45.0000 EX 60 -4 31 36
1964210N19314 1964 52 NA NA NOT_NAMED 1964-08-02 15:00:00 ET 45.5538 -43.7318 main 709 709 P_____________ AL021964 45.5538 -43.7318 EX 57 -4 33 32
1964210N19314 1964 52 NA NA NOT_NAMED 1964-08-02 18:00:00 ET 47.0000 -42.5000 55 hurdat_atl main 760 760 O_____________ hurdat_atl AL021964 47.0000 -42.5000 EX 55 -4 33 30
1964210N19314 1964 52 NA NA NOT_NAMED 1964-08-02 21:00:00 ET 48.4371 -41.2466 main 850 850 P_____________ AL021964 48.4371 -41.2466 EX 55 -4 32 30
1964210N19314 1964 52 NA NA NOT_NAMED 1964-08-03 00:00:00 ET 49.8000 -40.1000 55 hurdat_atl main 940 940 O_____________ hurdat_atl AL021964 49.8000 -40.1000 EX 55 -4 29 28
1964210N19314 1964 52 NA NA NOT_NAMED 1964-08-03 03:00:00 ET 50.9932 -39.1314 main 1030 942 P_____________ AL021964 50.9932 -39.1314 EX 55 -4 26 26
1964210N19314 1964 52 NA NA NOT_NAMED 1964-08-03 06:00:00 ET 52.1000 -38.3000 55 hurdat_atl main 933 843 O_____________ hurdat_atl AL021964 52.1000 -38.3000 EX 55 -4 24 25
1964210N19314 1964 52 NA NA NOT_NAMED 1964-08-03 09:00:00 ET 53.2065 -37.4863 main 835 753 P_____________ AL021964 53.2065 -37.4863 EX 55 -4 24 24
1964210N19314 1964 52 NA NA NOT_NAMED 1964-08-03 12:00:00 ET 54.3000 -36.7000 55 hurdat_atl main 747 667 O_____________ hurdat_atl AL021964 54.3000 -36.7000 EX 55 -4 24 22
1964210N19314 1964 52 NA NA NOT_NAMED 1964-08-03 15:00:00 ET 55.4506 -35.9129 main 661 619 P_____________ AL021964 55.4506 -35.9129 EX 55 -4 24 24
1964210N19314 1964 52 NA NA NOT_NAMED 1964-08-03 18:00:00 ET 56.5000 -35.0000 55 hurdat_atl main 615 603 O_____________ hurdat_atl AL021964 56.5000 -35.0000 EX 55 -4 22 31
1964210N19314 1964 52 NA NA NOT_NAMED 1964-08-03 21:00:00 ET 57.3378 -33.8798 main 611 609 P_____________ AL021964 57.3378 -33.8798 EX 52 -4 20 42
1964210N19314 1964 52 NA NA NOT_NAMED 1964-08-04 00:00:00 ET 58.0000 -32.5000 50 hurdat_atl main 644 644 O_____________ hurdat_atl AL021964 58.0000 -32.5000 EX 50 -4 20 53
1964210N19314 1964 52 NA NA NOT_NAMED 1964-08-04 03:00:00 ET 58.5678 -30.8232 main 707 629 P_____________ AL021964 58.5678 -30.8232 EX 50 -4 21 61
1964210N19314 1964 52 NA NA NOT_NAMED 1964-08-04 06:00:00 ET 59.0000 -29.0000 50 hurdat_atl main 626 553 O_____________ hurdat_atl AL021964 59.0000 -29.0000 EX 50 -4 20 68
1964210N19314 1964 52 NA NA NOT_NAMED 1964-08-04 09:00:00 ET 59.3452 -27.1714 main 550 488 P_____________ AL021964 59.3452 -27.1714 EX 47 -4 19 71
1964210N19314 1964 52 NA NA NOT_NAMED 1964-08-04 12:00:00 ET 59.6000 -25.5000 45 hurdat_atl main 487 449 O_____________ hurdat_atl AL021964 59.6000 -25.5000 EX 45 -4 16 73
1964210N19314 1964 52 NA NA NOT_NAMED 1964-08-04 15:00:00 ET 59.8197 -24.1342 main 448 415 P_____________ AL021964 59.8197 -24.1342 EX 45 -4 13 72
1964210N19314 1964 52 NA NA NOT_NAMED 1964-08-04 18:00:00 ET 60.0000 -23.0000 45 hurdat_atl main 413 376 O_____________ hurdat_atl AL021964 60.0000 -23.0000 EX 45 -4 11 73
1964210N19314 1964 52 NA NA NOT_NAMED 1964-08-04 21:00:00 ET 60.1638 -21.9388 main 375 356 P_____________ AL021964 60.1638 -21.9388 EX 45 -4 10 73
1964210N19314 1964 52 NA NA NOT_NAMED 1964-08-05 00:00:00 ET 60.3000 -21.0000 45 hurdat_atl main 356 340 O_____________ hurdat_atl AL021964 60.3000 -21.0000 EX 45 -4 9 74
1964210N19314 1964 52 NA NA NOT_NAMED 1964-08-05 03:00:00 ET 60.4213 -20.1348 main 339 322 P_____________ AL021964 60.4213 -20.1348 EX 42 -4 9 77
1964210N19314 1964 52 NA NA NOT_NAMED 1964-08-05 06:00:00 ET 60.5000 -19.3000 40 hurdat_atl main 322 320 O_____________ hurdat_atl AL021964 60.5000 -19.3000 EX 40 -4 8 83
1964210N19314 1964 52 NA NA NOT_NAMED 1964-08-05 09:00:00 ET 60.5283 -18.4603 main 320 320 P_____________ AL021964 60.5283 -18.4603 EX 40 -4 9 90
1964210N19314 1964 52 NA NA NOT_NAMED 1964-08-05 12:00:00 ET 60.5000 -17.5000 40 hurdat_atl main 326 326 O_____________ hurdat_atl AL021964 60.5000 -17.5000 EX 40 -4 11 96
1964210N19314 1964 52 NA NA NOT_NAMED 1964-08-05 15:00:00 ET 60.4226 -16.3022 main 354 354 P_____________ AL021964 60.4226 -16.3022 EX 37 -4 12 99
1964210N19314 1964 52 NA NA NOT_NAMED 1964-08-05 18:00:00 ET 60.3000 -15.0000 35 hurdat_atl main 391 391 O_____________ hurdat_atl AL021964 60.3000 -15.0000 EX 35 -4 13 101
1964210N19314 1964 52 NA NA NOT_NAMED 1964-08-05 21:00:00 ET 60.1648 -13.7131 main 429 376 P_____________ AL021964 60.1648 -13.7131 EX 32 -4 13 104
1964210N19314 1964 52 NA NA NOT_NAMED 1964-08-06 00:00:00 ET 60.0000 -12.5000 30 hurdat_atl main 371 313 O_____________ hurdat_atl AL021964 60.0000 -12.5000 EX 30 -4 12 107
1964210N19314 1964 52 NA NA NOT_NAMED 1964-08-06 03:00:00 ET 59.8216 -11.4266 main 308 255 P_____________ AL021964 59.8216 -11.4266 EX 30 -4 11 112
1964210N19314 1964 52 NA NA NOT_NAMED 1964-08-06 06:00:00 ET 59.6000 -10.5000 30 hurdat_atl main 255 205 O_____________ hurdat_atl AL021964 59.6000 -10.5000 EX 30 -4 10 119
1964210N19314 1964 52 NA NA NOT_NAMED 1964-08-06 09:00:00 ET 59.3442 -9.69217 main 199 148 P_____________ AL021964 59.3442 -9.69217 EX 30 -4 10 128
1964210N19314 1964 52 NA NA NOT_NAMED 1964-08-06 12:00:00 ET 59.0000 -9.00000 30 hurdat_atl main 148 93 O_____________ hurdat_atl AL021964 59.0000 -9.00000 EX 30 -4 11 140
1964210N19314 1964 52 NA NA NOT_NAMED 1964-08-06 15:00:00 ET 58.5296 -8.36271 main 87 40 P_____________ AL021964 58.5296 -8.36271 EX 32 -4 12 148
1964210N19314 1964 52 NA NA NOT_NAMED 1964-08-06 18:00:00 ET 58.0000 -7.80000 35 hurdat_atl main 40 26 O_____________ hurdat_atl AL021964 58.0000 -7.80000 EX 35 -4 12 151
1964210N19314 1964 52 NA NA NOT_NAMED 1964-08-06 21:00:00 ET 57.4698 -7.27036 main 28 21 P_____________ AL021964 57.4698 -7.27036 EX 35 -4 11 152
1964210N19314 1964 52 NA NA NOT_NAMED 1964-08-07 00:00:00 ET 57.0000 -6.80000 35 hurdat_atl main 35 12 O_____________ hurdat_atl AL021964 57.0000 -6.80000 EX 35 -4 9 150
1964210N19314 1964 52 NA NA NOT_NAMED 1964-08-07 03:00:00 ET 56.6546 -6.40193 main 12 12 P_____________ AL021964 56.6546 -6.40193 EX 35 -4 7 144
1964210N19314 1964 52 NA NA NOT_NAMED 1964-08-07 06:00:00 ET 56.4000 -6.00000 35 hurdat_atl main 21 0 O_____________ hurdat_atl AL021964 56.4000 -6.00000 EX 35 -4 7 135
1964210N19314 1964 52 NA NA NOT_NAMED 1964-08-07 09:00:00 ET 56.1700 -5.51520 main 0 0 P_____________ AL021964 56.1700 -5.51520 EX 35 -4 7 126
1964210N19314 1964 52 NA NA NOT_NAMED 1964-08-07 12:00:00 ET 56.0000 -5.00000 35 hurdat_atl main 0 0 O_____________ hurdat_atl AL021964 56.0000 -5.00000 EX 35 -4 6 117
1964210N19314 1964 52 NA NA NOT_NAMED 1964-08-07 15:00:00 ET 55.8848 -4.50084 main 6 0 P_____________ AL021964 55.8848 -4.50084 EX 32 -4 6 110
1964210N19314 1964 52 NA NA NOT_NAMED 1964-08-07 18:00:00 ET 55.8000 -4.00000 30 hurdat_atl main 0 0 O_____________ hurdat_atl AL021964 55.8000 -4.00000 EX 30 -4 6 108
1964210N19314 1964 52 NA NA NOT_NAMED 1964-08-07 21:00:00 ET 55.7073 -3.50054 main 0 0 P_____________ AL021964 55.7073 -3.50054 EX 30 -4 6 110
1964210N19314 1964 52 NA NA NOT_NAMED 1964-08-08 00:00:00 ET 55.6000 -3.00000 30 hurdat_atl main 0 0 O_____________ hurdat_atl AL021964 55.6000 -3.00000 EX 30 -4 6 114
1964210N19314 1964 52 NA NA NOT_NAMED 1964-08-08 03:00:00 ET 55.4573 -2.50009 main 0 0 P_____________ AL021964 55.4573 -2.50009 EX 30 -4 6 118
1964210N19314 1964 52 NA NA NOT_NAMED 1964-08-08 06:00:00 ET 55.3000 -2.00000 30 hurdat_atl main 0 0 O_____________ hurdat_atl AL021964 55.3000 -2.00000 EX 30 -4 7 120
1964210N19314 1964 52 NA NA NOT_NAMED 1964-08-08 09:00:00 ET 55.1272 -1.49953 main 6 6 P_____________ AL021964 55.1268 -1.53714 EX 30 -4 6 118
1964210N19314 1964 52 NA NA NOT_NAMED 1964-08-08 12:00:00 ET 55.0000 -1.00000 30 hurdat_atl main 27 27 O_____________ hurdat_atl AL021964 55.0000 -1.00000 EX 30 -4 6 100
1964210N19314 1964 52 NA NA NOT_NAMED 1964-08-08 15:00:00 ET 55.0147 -0.426277 main 56 56 P_____________ AL021964 55.0151 -0.290565 EX 30 -4 6 90
1964210N19314 1964 52 NA NA NOT_NAMED 1964-08-08 18:00:00 ET 55.0000 0.00000 30 hurdat_atl main 67 55 O_____________ hurdat_atl AL021964 55.0000 0.500000 EX 30 -4 4 128
1964210N19314 1964 52 NA NA NOT_NAMED 1964-08-08 21:00:00 ET 54.7880 0.0745879 main 55 38 P_____________ AL021964 54.7873 1.26645 EX 27 -4 5 178
1964210N19314 1964 52 NA NA NOT_NAMED 1964-08-09 00:00:00 ET 54.5000 0.00000 25 hurdat_atl main 38 23 O_____________ hurdat_atl AL021964 54.5000 2.00000 EX 25 -4 5 184
1964210N19314 1964 52 NA NA NOT_NAMED 1964-08-09 03:00:00 ET 54.2495 0.00000 main 12 6 P_____________ AL021964 54.2495 2.67156 EX 25 -4 5 178
1964210N19314 1964 52 NA NA NOT_NAMED 1964-08-09 06:00:00 ET 54.0000 0.00000 25 hurdat_atl main 12 0 O_____________ hurdat_atl AL021964 54.0000 3.30000 EX 25 -4 5 180
1964210N19314 1964 52 NA NA NOT_NAMED 1964-08-09 09:00:00 ET 53.7506 0.00000 main 0 0 P_____________ AL021964 53.7506 3.90645 EX 25 -4 5 178
1964210N19314 1964 52 NA NA NOT_NAMED 1964-08-09 12:00:00 ET 53.5000 0.00000 25 hurdat_atl main 0 O_____________ hurdat_atl AL021964 53.5000 4.50000 EX 25 -4 5 0

IBTrACS Databaseについて

本データベースは、米国NOAAが公開する1842年以降の世界の熱帯低気圧のベストトラックデータアーカイブInternational Best Track Archive for Climate Stewardship (IBTrACS)を、ウェブで閲覧しやすい形式に変換したものです。

最終更新日:2021-10-21